Ora Direzione Vento Velocita' Vento Media Vento Raffica Max. Temperatura Wind Chill Pioggia Pressione
22:49:11.061 °(ENE)8.7 Kts7.0 Kts24.3 Kts5.2 °C1.7 °C0.0 mm1002.5 Hpa
22:28:28.011 °(N)5.2 Kts8.7 Kts24.3 Kts5.4 °C2.9 °C0.0 mm1002.2 Hpa
22:07:45.014 °(NNE)9.5 Kts8.7 Kts24.3 Kts5.1 °C1.3 °C0.0 mm1002.1 Hpa
21:49:09.010 °(N)11.3 Kts8.7 Kts24.3 Kts5.1 °C0.8 °C0.0 mm1002.2 Hpa
21:28:26.0350 °(N)4.3 Kts7.8 Kts24.3 Kts5.0 °C3.0 °C0.0 mm1002.4 Hpa
21:07:44.047 °(NE)5.2 Kts7.8 Kts24.3 Kts4.9 °C2.5 °C0.0 mm1002.3 Hpa
20:49:10.034 °(NE)10.5 Kts7.8 Kts24.3 Kts4.7 °C0.5 °C0.0 mm1002.4 Hpa
20:28:26.030 °(NNE)14.8 Kts7.0 Kts24.3 Kts4.5 °C-0.6 °C0.0 mm1002.3 Hpa
20:07:42.029 °(NNE)7.8 Kts7.8 Kts24.3 Kts4.6 °C1.2 °C0.0 mm1002.1 Hpa
19:49:06.024 °(NNE)4.3 Kts7.0 Kts24.3 Kts4.6 °C2.6 °C0.0 mm1002.2 Hpa
19:28:23.035 °(NE)6.0 Kts7.0 Kts24.3 Kts4.6 °C1.8 °C0.0 mm1002.3 Hpa
19:07:44.057 °(ENE)11.3 Kts7.0 Kts24.3 Kts4.6 °C0.2 °C0.0 mm1002.2 Hpa
18:49:08.024 °(NNE)6.0 Kts7.8 Kts24.3 Kts4.9 °C2.2 °C0.0 mm1002.3 Hpa
18:28:21.020 °(NNE)7.0 Kts7.8 Kts24.3 Kts5.1 °C2.1 °C0.0 mm1002.5 Hpa
18:07:41.030 °(NNE)6.0 Kts7.8 Kts24.3 Kts5.2 °C2.5 °C0.0 mm1002.4 Hpa
17:49:00.022 °(NNE)9.5 Kts7.8 Kts24.3 Kts5.2 °C1.5 °C0.0 mm1002.5 Hpa
17:28:16.05 °(N)7.0 Kts7.8 Kts24.3 Kts5.2 °C2.2 °C0.0 mm1002.7 Hpa
17:07:30.015 °(NNE)8.7 Kts8.7 Kts24.3 Kts5.2 °C1.7 °C0.0 mm1002.8 Hpa
16:48:49.064 °(ENE)7.0 Kts10.5 Kts24.3 Kts5.5 °C2.4 °C0.0 mm1002.8 Hpa
16:27:58.05 °(N)11.3 Kts10.5 Kts24.3 Kts5.6 °C1.4 °C0.0 mm1002.8 Hpa